Time;durP1;ratioP1;P1;durP2;ratioP2;P2;SDS_P1;SDS_P2;PMS_P1;PMS_P2;Temp;Humidity;BMP_temperature;BMP_pressure;BME280_temperature;BME280_humidity;BME280_pressure;Samples;Min_cycle;Max_cycle;Signal;HPM_P1;HPM_P2
2021/05/08 00:01:38;;;;;;;10.33;6.70;;;5.90;98.30;;;;;;4109085;28;20507;-82
2021/05/08 00:03:43;;;;;;;11.90;7.10;;;5.90;98.30;;;;;;4104568;28;20485;-82
2021/05/08 00:05:47;;;;;;;8.70;6.67;;;6.00;98.30;;;;;;4102650;28;20535;-82
2021/05/08 00:07:49;;;;;;;12.57;7.67;;;6.00;98.30;;;;;;4109514;28;21049;-82
2021/05/08 00:09:51;;;;;;;10.37;7.30;;;6.00;98.30;;;;;;4108471;28;20553;-82
2021/05/08 00:11:55;;;;;;;13.30;6.87;;;6.00;98.30;;;;;;4105233;28;20951;-82
2021/05/08 00:13:57;;;;;;;10.30;7.20;;;5.90;98.30;;;;;;4106266;28;20494;-83
2021/05/08 00:16:00;;;;;;;12.03;6.93;;;5.90;98.30;;;;;;4107803;28;20489;-82
2021/05/08 00:18:04;;;;;;;10.23;5.90;;;6.00;98.30;;;;;;4107905;28;20882;-83
2021/05/08 00:20:07;;;;;;;10.40;6.70;;;6.00;98.30;;;;;;4107241;28;20512;-83
2021/05/08 00:22:09;;;;;;;12.20;6.70;;;5.90;98.30;;;;;;4107565;28;20488;-82
2021/05/08 00:24:11;;;;;;;13.23;6.23;;;5.90;98.30;;;;;;4108929;28;20482;-83
2021/05/08 00:26:13;;;;;;;12.37;7.17;;;5.90;98.30;;;;;;4106491;28;20496;-82
2021/05/08 00:28:15;;;;;;;10.33;6.50;;;5.90;98.30;;;;;;4107779;28;20503;-83
2021/05/08 00:30:18;;;;;;;12.00;6.10;;;5.80;98.30;;;;;;4107625;28;20495;-82
2021/05/08 00:32:20;;;;;;;12.83;6.90;;;5.80;98.30;;;;;;4106637;28;20496;-82
2021/05/08 00:34:23;;;;;;;13.90;6.90;;;5.80;98.30;;;;;;4107270;28;20552;-82
2021/05/08 00:36:25;;;;;;;14.87;8.90;;;5.80;98.30;;;;;;4106886;28;20484;-82
2021/05/08 00:38:27;;;;;;;12.40;7.37;;;5.80;98.30;;;;;;4108413;28;21003;-82
2021/05/08 00:40:29;;;;;;;13.03;5.93;;;5.80;98.30;;;;;;4108259;28;20499;-82
2021/05/08 00:42:31;;;;;;;11.40;6.90;;;5.80;98.30;;;;;;4106943;28;20499;-82
2021/05/08 00:44:33;;;;;;;15.67;7.33;;;5.80;98.30;;;;;;4106657;28;20497;-82
2021/05/08 00:46:35;;;;;;;10.50;6.90;;;5.80;98.30;;;;;;4106969;28;20498;-83
2021/05/08 00:48:38;;;;;;;10.60;5.83;;;5.80;98.30;;;;;;4110336;28;20497;-83
2021/05/08 00:50:42;;;;;;;15.83;10.10;;;5.80;98.30;;;;;;4106690;28;20498;-82
2021/05/08 00:52:44;;;;;;;10.37;6.60;;;5.80;98.30;;;;;;4107079;28;20495;-81
2021/05/08 00:54:46;;;;;;;16.03;8.50;;;5.70;98.30;;;;;;4106615;28;21033;-81
2021/05/08 00:56:48;;;;;;;9.40;6.80;;;5.70;98.30;;;;;;4105800;28;20607;-82
2021/05/08 00:58:51;;;;;;;11.70;7.53;;;5.70;98.30;;;;;;4106477;28;20792;-82
2021/05/08 01:00:55;;;;;;;12.03;7.10;;;5.70;98.30;;;;;;4107422;28;20507;-82
2021/05/08 01:02:57;;;;;;;17.33;10.10;;;5.70;98.30;;;;;;4109308;28;20571;-82
2021/05/08 01:05:00;;;;;;;10.77;7.87;;;5.70;98.30;;;;;;4108568;28;20489;-82
2021/05/08 01:07:03;;;;;;;12.30;8.87;;;5.70;98.30;;;;;;4109648;28;20872;-82
2021/05/08 01:09:16;;;;;;;9.30;7.30;;;5.70;98.30;;;;;;4108754;28;20582;-82
2021/05/08 01:11:22;;;;;;;11.27;6.80;;;5.70;98.30;;;;;;4107985;28;20568;-82
2021/05/08 01:13:24;;;;;;;12.90;6.00;;;5.70;98.30;;;;;;4106531;28;20493;-82
2021/05/08 01:15:27;;;;;;;14.82;7.60;;;5.60;98.30;;;;;;4107236;28;20511;-82
2021/05/08 01:17:29;;;;;;;11.17;7.27;;;5.60;98.30;;;;;;4106376;28;20226;-83
2021/05/08 01:19:38;;;;;;;10.63;7.53;;;5.60;98.30;;;;;;4106242;28;20485;-83
2021/05/08 01:21:41;;;;;;;11.80;8.10;;;5.50;98.30;;;;;;4107160;28;20669;-83
2021/05/08 01:23:43;;;;;;;16.45;7.80;;;5.50;98.30;;;;;;4107829;28;20500;-83
2021/05/08 01:25:45;;;;;;;12.47;8.27;;;5.50;98.30;;;;;;4107047;28;20351;-82
2021/05/08 01:27:49;;;;;;;13.83;6.60;;;5.40;98.30;;;;;;4108904;28;20488;-83
2021/05/08 01:29:51;;;;;;;11.15;7.82;;;5.40;98.30;;;;;;4115813;28;21310;-83
2021/05/08 01:31:53;;;;;;;11.27;7.87;;;5.40;98.30;;;;;;4115058;28;20252;-83
2021/05/08 01:33:55;;;;;;;12.73;6.30;;;5.40;98.30;;;;;;4111651;28;20492;-82
2021/05/08 01:35:59;;;;;;;12.60;6.88;;;5.40;98.30;;;;;;4112644;28;20296;-83
2021/05/08 01:38:02;;;;;;;11.90;7.50;;;5.40;98.30;;;;;;4115319;28;20253;-82
2021/05/08 01:40:07;;;;;;;20.75;9.05;;;5.30;98.30;;;;;;4112896;28;20616;-82
2021/05/08 01:42:09;;;;;;;13.45;7.35;;;5.30;98.30;;;;;;4107530;28;20300;-82
2021/05/08 01:44:11;;;;;;;14.55;8.13;;;5.30;98.30;;;;;;4108230;28;20233;-82
2021/05/08 01:46:13;;;;;;;14.95;8.23;;;5.30;98.30;;;;;;4110387;28;20224;-82
2021/05/08 01:48:16;;;;;;;16.95;7.60;;;5.30;98.30;;;;;;4106586;28;20229;-81
2021/05/08 01:50:20;;;;;;;13.70;7.88;;;5.30;98.30;;;;;;4110597;28;20236;-81
2021/05/08 01:52:22;;;;;;;15.07;7.80;;;5.30;98.30;;;;;;4114608;28;20229;-82
2021/05/08 01:54:26;;;;;;;9.80;7.40;;;5.30;98.30;;;;;;4116092;28;20245;-82
2021/05/08 01:56:28;;;;;;;13.77;7.85;;;5.30;98.30;;;;;;4111548;28;20237;-82
2021/05/08 01:58:29;;;;;;;17.70;9.40;;;5.30;98.30;;;;;;4105830;28;20233;-81
2021/05/08 02:00:33;;;;;;;10.67;7.50;;;5.20;98.30;;;;;;4105185;28;20994;-81
2021/05/08 02:02:35;;;;;;;13.60;8.60;;;5.20;98.30;;;;;;4105341;28;21069;-81
2021/05/08 02:04:37;;;;;;;9.60;8.05;;;5.20;98.30;;;;;;4104831;28;20553;-82
2021/05/08 02:06:39;;;;;;;13.73;7.55;;;5.20;98.30;;;;;;4105195;28;20232;-81
2021/05/08 02:08:41;;;;;;;19.02;10.13;;;5.20;98.30;;;;;;4105706;28;20248;-82
2021/05/08 02:10:45;;;;;;;15.48;8.27;;;5.20;98.30;;;;;;4106484;28;20329;-82
2021/05/08 02:12:47;;;;;;;11.13;7.78;;;5.20;98.30;;;;;;4105456;28;20256;-82
2021/05/08 02:14:49;;;;;;;13.18;8.75;;;5.20;98.30;;;;;;4108319;28;20253;-83
2021/05/08 02:16:51;;;;;;;15.38;9.20;;;5.20;98.30;;;;;;4106914;28;20323;-82
2021/05/08 02:18:53;;;;;;;13.45;8.52;;;5.10;98.30;;;;;;4105929;28;20229;-82
2021/05/08 02:20:55;;;;;;;11.82;8.35;;;5.10;98.30;;;;;;4106927;28;20593;-83
2021/05/08 02:23:00;;;;;;;16.70;8.43;;;5.10;98.30;;;;;;4107432;28;20230;-82
2021/05/08 02:25:02;;;;;;;17.73;9.50;;;5.10;98.30;;;;;;4106115;28;20241;-82
2021/05/08 02:27:05;;;;;;;9.10;8.10;;;5.10;98.30;;;;;;4107150;28;20233;-82
2021/05/08 02:29:07;;;;;;;18.13;9.88;;;5.10;98.30;;;;;;4105308;28;20316;-82
2021/05/08 02:31:09;;;;;;;15.98;9.20;;;5.10;98.30;;;;;;4107174;28;20259;-82
2021/05/08 02:33:11;;;;;;;18.08;9.15;;;5.10;98.30;;;;;;4107339;28;20237;-82
2021/05/08 02:35:15;;;;;;;10.93;7.68;;;5.00;98.30;;;;;;4104531;28;20233;-82
2021/05/08 02:37:17;;;;;;;19.60;11.25;;;5.10;98.30;;;;;;4105896;28;20300;-82
2021/05/08 02:39:19;;;;;;;12.15;9.48;;;5.00;98.30;;;;;;4105321;28;20228;-82
2021/05/08 02:41:21;;;;;;;13.30;9.27;;;5.00;98.30;;;;;;4105458;28;20335;-82
2021/05/08 02:43:24;;;;;;;18.85;8.63;;;5.00;98.30;;;;;;4104345;28;20316;-82
2021/05/08 02:45:26;;;;;;;17.27;8.85;;;5.00;98.30;;;;;;4105693;28;20591;-82
2021/05/08 02:47:28;;;;;;;16.88;9.30;;;4.90;98.30;;;;;;4104540;28;20235;-82
2021/05/08 02:49:29;;;;;;;17.77;10.45;;;4.90;98.30;;;;;;4104552;28;20233;-82
2021/05/08 02:51:31;;;;;;;25.10;10.70;;;4.90;98.30;;;;;;4104886;28;20714;-82
2021/05/08 02:53:33;;;;;;;15.07;10.02;;;4.90;98.30;;;;;;4103891;28;20944;-82
2021/05/08 02:56:31;;;;;;;16.13;9.63;;;4.90;98.30;;;;;;4102477;28;20229;-82
2021/05/08 02:58:34;;;;;;;13.95;9.00;;;5.00;98.30;;;;;;4099543;28;20239;-82
2021/05/08 03:00:36;;;;;;;17.98;11.02;;;5.00;98.30;;;;;;4105620;28;20240;-82
2021/05/08 03:02:41;;;;;;;19.55;10.80;;;4.90;98.30;;;;;;4101763;28;20234;-82
2021/05/08 03:04:43;;;;;;;20.35;9.30;;;4.90;98.30;;;;;;4104453;28;20261;-82
2021/05/08 03:06:45;;;;;;;12.38;8.93;;;4.90;98.30;;;;;;4102674;28;20235;-82
2021/05/08 03:08:47;;;;;;;18.42;10.20;;;4.90;98.30;;;;;;4104326;28;20988;-82
2021/05/08 03:10:49;;;;;;;25.35;11.15;;;4.90;98.30;;;;;;4102415;28;20244;-82
2021/05/08 03:12:51;;;;;;;17.98;9.75;;;4.90;98.30;;;;;;4105210;28;20249;-82
2021/05/08 03:14:53;;;;;;;13.10;9.68;;;4.90;98.30;;;;;;4107984;28;20235;-82
2021/05/08 03:16:56;;;;;;;17.05;10.15;;;4.90;98.30;;;;;;4106730;28;20243;-82
2021/05/08 03:19:09;;;;;;;15.52;10.60;;;4.90;98.30;;;;;;4107756;28;20264;-82
2021/05/08 03:21:11;;;;;;;18.20;10.25;;;4.90;98.30;;;;;;4107934;28;20662;-82
2021/05/08 03:23:13;;;;;;;15.93;9.93;;;4.90;98.30;;;;;;4108778;28;20244;-82
2021/05/08 03:25:16;;;;;;;11.23;9.75;;;4.90;98.30;;;;;;4108385;28;20244;-82
2021/05/08 03:27:18;;;;;;;17.92;10.07;;;4.90;98.30;;;;;;4109117;28;20759;-82
2021/05/08 03:29:20;;;;;;;11.90;8.55;;;4.90;98.30;;;;;;4107955;28;20329;-82
2021/05/08 03:31:23;;;;;;;20.00;10.13;;;4.80;98.30;;;;;;4109001;28;20243;-82
2021/05/08 03:33:25;;;;;;;10.60;8.25;;;4.80;98.30;;;;;;4107793;28;20232;-82
2021/05/08 03:35:27;;;;;;;18.05;10.18;;;4.80;98.30;;;;;;4108662;28;20232;-82
2021/05/08 03:37:29;;;;;;;12.77;10.40;;;4.80;98.30;;;;;;4106974;28;20317;-82
2021/05/08 03:39:32;;;;;;;19.05;10.63;;;4.80;98.30;;;;;;4107704;28;20244;-82
2021/05/08 03:41:34;;;;;;;21.95;10.00;;;4.80;98.30;;;;;;4107633;28;20245;-82
2021/05/08 03:43:36;;;;;;;19.17;10.88;;;4.80;98.30;;;;;;4108261;28;20245;-82
2021/05/08 03:45:38;;;;;;;11.75;9.07;;;4.80;98.30;;;;;;4108564;28;20225;-82
2021/05/08 03:47:40;;;;;;;10.98;9.18;;;4.80;98.30;;;;;;4106991;28;20229;-82
2021/05/08 03:49:42;;;;;;;14.30;9.35;;;4.90;98.30;;;;;;4107188;28;20287;-82
2021/05/08 03:51:44;;;;;;;18.20;10.00;;;4.80;98.30;;;;;;4107269;28;20713;-82
2021/05/08 03:53:46;;;;;;;13.05;9.68;;;4.90;98.30;;;;;;4106522;28;20247;-82
2021/05/08 03:55:50;;;;;;;13.65;9.20;;;4.90;98.30;;;;;;4107248;28;20237;-81
2021/05/08 03:57:52;;;;;;;12.88;9.45;;;4.90;98.30;;;;;;4106341;28;20237;-82
2021/05/08 03:59:54;;;;;;;21.77;10.45;;;4.90;98.30;;;;;;4108572;28;20291;-82
2021/05/08 04:01:56;;;;;;;14.52;9.65;;;4.90;98.30;;;;;;4105207;28;20320;-82
2021/05/08 04:03:59;;;;;;;14.15;9.32;;;4.90;98.30;;;;;;4109315;28;20235;-82
2021/05/08 04:06:01;;;;;;;10.25;8.45;;;4.90;98.30;;;;;;4107843;28;20753;-82
2021/05/08 04:08:03;;;;;;;16.33;10.48;;;4.90;98.30;;;;;;4112890;28;20830;-82
2021/05/08 04:10:06;;;;;;;21.20;10.18;;;4.90;98.30;;;;;;4106444;28;20236;-82
2021/05/08 04:12:08;;;;;;;12.55;9.63;;;4.90;98.30;;;;;;4106220;28;20236;-83
2021/05/08 04:14:10;;;;;;;17.02;9.73;;;4.90;98.30;;;;;;4107106;28;20230;-82
2021/05/08 04:16:12;;;;;;;17.42;9.43;;;4.90;98.30;;;;;;4107580;28;20240;-82
2021/05/08 04:18:14;;;;;;;15.45;10.07;;;4.90;98.30;;;;;;4108899;28;20269;-82
2021/05/08 04:20:17;;;;;;;17.00;10.75;;;4.90;98.30;;;;;;4106900;28;20233;-82
2021/05/08 04:22:19;;;;;;;12.80;10.10;;;4.90;98.30;;;;;;4107642;28;20639;-82
2021/05/08 04:24:21;;;;;;;17.23;10.82;;;4.90;98.30;;;;;;4106352;28;20234;-82
2021/05/08 04:26:23;;;;;;;13.70;9.45;;;5.00;98.30;;;;;;4107558;28;20253;-83
2021/05/08 04:28:25;;;;;;;14.55;10.32;;;4.90;98.30;;;;;;4107727;28;20232;-82
2021/05/08 04:30:30;;;;;;;16.80;10.80;;;5.00;98.30;;;;;;4106683;28;20303;-82
2021/05/08 04:32:51;;;;;;;13.98;10.13;;;5.00;98.30;;;;;;4106885;28;20489;-82
2021/05/08 04:34:53;;;;;;;15.68;10.35;;;5.00;98.30;;;;;;4106000;28;20625;-82
2021/05/08 04:36:56;;;;;;;16.83;10.25;;;5.00;98.30;;;;;;4107130;28;20233;-82
2021/05/08 04:38:58;;;;;;;17.65;11.23;;;5.10;98.30;;;;;;4105308;28;20599;-82
2021/05/08 04:41:00;;;;;;;12.20;9.80;;;5.20;98.30;;;;;;4107526;28;20245;-82
2021/05/08 04:43:02;;;;;;;13.68;9.77;;;5.20;98.30;;;;;;4107584;28;20328;-82
2021/05/08 04:45:06;;;;;;;21.30;10.80;;;5.30;98.30;;;;;;4107413;28;20316;-82
2021/05/08 04:47:12;;;;;;;12.50;9.10;;;5.30;98.30;;;;;;4104768;28;20496;-82
2021/05/08 04:49:15;;;;;;;17.27;10.10;;;5.30;98.30;;;;;;4107028;28;21020;-82
2021/05/08 04:51:19;;;;;;;16.23;9.87;;;5.30;98.30;;;;;;4106517;28;20758;-82
2021/05/08 04:53:22;;;;;;;13.30;10.20;;;5.40;98.30;;;;;;4105467;28;20556;-82
2021/05/08 04:55:24;;;;;;;11.32;8.60;;;5.40;98.30;;;;;;4106666;28;20519;-82
2021/05/08 04:57:26;;;;;;;13.07;8.68;;;5.40;98.30;;;;;;4106168;28;20469;-82
2021/05/08 04:59:30;;;;;;;13.67;10.50;;;5.40;98.30;;;;;;4106727;28;20721;-83
2021/05/08 05:01:32;;;;;;;14.23;10.10;;;5.50;98.30;;;;;;4107460;28;20532;-82
2021/05/08 05:03:34;;;;;;;11.93;9.03;;;5.60;98.30;;;;;;4106517;28;20863;-82
2021/05/08 05:05:36;;;;;;;10.27;8.37;;;5.60;98.30;;;;;;4105938;28;20493;-82
2021/05/08 05:07:38;;;;;;;13.27;9.70;;;5.70;98.30;;;;;;4105950;28;20499;-83
2021/05/08 05:09:41;;;;;;;14.27;9.10;;;5.70;98.30;;;;;;4159867;23;20591;-81
2021/05/08 05:11:43;;;;;;;14.77;8.47;;;5.70;98.30;;;;;;4112426;28;20498;-81
2021/05/08 05:13:46;;;;;;;12.07;9.17;;;5.70;98.30;;;;;;4105439;28;20507;-82
2021/05/08 05:15:48;;;;;;;15.40;8.60;;;5.80;98.30;;;;;;4104979;28;20872;-81
2021/05/08 05:17:50;;;;;;;15.87;12.80;;;5.80;98.30;;;;;;4104862;28;20497;-82
2021/05/08 05:19:53;;;;;;;15.60;10.30;;;5.80;98.30;;;;;;4108973;28;20500;-81
2021/05/08 05:21:54;;;;;;;16.43;10.13;;;5.90;98.30;;;;;;4118892;28;20519;-82
2021/05/08 05:23:56;;;;;;;20.10;11.20;;;5.90;98.30;;;;;;4116986;28;20619;-81
2021/05/08 05:25:59;;;;;;;12.70;9.13;;;5.90;98.30;;;;;;4116750;28;20488;-84
2021/05/08 05:28:01;;;;;;;16.80;9.47;;;6.00;98.30;;;;;;4107978;28;21077;-81
2021/05/08 05:30:04;;;;;;;14.00;10.00;;;6.00;98.30;;;;;;4104488;28;20491;-81
2021/05/08 05:32:06;;;;;;;11.57;8.90;;;6.00;98.30;;;;;;4105317;28;20605;-82
2021/05/08 05:34:09;;;;;;;14.57;9.57;;;6.10;98.30;;;;;;4106962;28;21177;-81
2021/05/08 05:36:11;;;;;;;21.27;9.33;;;6.20;98.30;;;;;;4104811;28;20497;-81
2021/05/08 05:38:13;;;;;;;19.53;8.17;;;6.20;98.30;;;;;;4105621;28;20574;-81
2021/05/08 05:40:15;;;;;;;13.50;8.43;;;6.20;98.30;;;;;;4107205;28;20502;-81
2021/05/08 05:42:17;;;;;;;17.00;9.30;;;6.20;98.30;;;;;;4106600;28;20509;-81
2021/05/08 05:44:19;;;;;;;14.57;8.50;;;6.20;98.30;;;;;;4106225;28;20492;-82
2021/05/08 05:46:21;;;;;;;13.80;9.20;;;6.30;98.30;;;;;;4103900;28;21037;-82
2021/05/08 05:48:24;;;;;;;16.90;9.63;;;6.30;98.30;;;;;;4106524;28;20499;-82
2021/05/08 05:50:26;;;;;;;17.00;9.03;;;6.30;98.30;;;;;;4107190;28;20506;-82
2021/05/08 05:52:28;;;;;;;17.60;7.73;;;6.40;98.30;;;;;;4102063;28;20494;-81
2021/05/08 05:54:30;;;;;;;9.80;7.63;;;6.50;98.30;;;;;;4107120;28;20885;-81
2021/05/08 05:56:32;;;;;;;17.50;8.73;;;6.50;98.30;;;;;;4105906;28;20593;-82
2021/05/08 05:58:34;;;;;;;12.43;8.10;;;6.60;98.30;;;;;;4104445;28;20539;-82
2021/05/08 06:00:36;;;;;;;13.90;9.30;;;6.60;98.30;;;;;;4105742;28;20595;-81
2021/05/08 06:02:38;;;;;;;16.53;8.77;;;6.70;98.30;;;;;;4106292;28;20565;-81
2021/05/08 06:04:40;;;;;;;12.33;9.00;;;6.70;98.30;;;;;;4104561;28;21036;-82
2021/05/08 06:06:42;;;;;;;16.40;9.43;;;6.80;98.30;;;;;;4105761;28;20556;-82
2021/05/08 06:08:44;;;;;;;11.83;8.77;;;6.90;98.30;;;;;;4104938;28;20499;-82
2021/05/08 06:10:46;;;;;;;14.20;7.30;;;7.00;98.30;;;;;;4106540;28;20589;-82
2021/05/08 06:12:48;;;;;;;13.87;7.37;;;7.00;98.30;;;;;;4103065;28;20493;-82
2021/05/08 06:14:51;;;;;;;15.00;7.20;;;7.10;98.30;;;;;;4105442;28;20488;-82
2021/05/08 06:16:55;;;;;;;12.20;7.33;;;7.20;98.30;;;;;;4102806;28;20477;-81
2021/05/08 06:18:57;;;;;;;8.70;6.93;;;7.30;98.30;;;;;;4105187;28;20467;-81
2021/05/08 06:20:59;;;;;;;13.70;6.70;;;7.40;98.30;;;;;;4103175;28;20468;-82
2021/05/08 06:23:02;;;;;;;9.40;7.00;;;7.50;98.30;;;;;;4106743;28;20470;-82
2021/05/08 06:25:05;;;;;;;14.03;6.50;;;7.70;98.30;;;;;;4105009;28;21018;-82
2021/05/08 06:27:10;;;;;;;13.23;7.20;;;7.80;98.30;;;;;;4104849;28;20492;-84
2021/05/08 06:29:12;;;;;;;15.00;7.40;;;7.90;98.30;;;;;;4103687;28;20497;-84
2021/05/08 06:31:14;;;;;;;12.00;7.03;;;7.90;98.30;;;;;;4108803;28;20859;-84
2021/05/08 06:33:16;;;;;;;10.27;6.30;;;8.00;98.30;;;;;;4102829;28;20865;-84
2021/05/08 06:35:18;;;;;;;13.93;6.40;;;8.20;98.30;;;;;;4103906;28;20480;-84
2021/05/08 06:37:22;;;;;;;11.53;6.13;;;8.30;98.30;;;;;;4105548;28;20487;-84
2021/05/08 06:39:25;;;;;;;15.03;6.40;;;8.30;98.30;;;;;;4106919;28;20491;-84
2021/05/08 06:41:27;;;;;;;14.37;6.00;;;8.40;98.30;;;;;;4106998;28;20491;-84
2021/05/08 06:43:29;;;;;;;9.90;6.07;;;8.30;98.30;;;;;;4102152;28;20478;-84
2021/05/08 06:45:31;;;;;;;8.77;5.70;;;8.30;98.30;;;;;;4106147;28;20986;-84
2021/05/08 06:47:33;;;;;;;12.20;5.73;;;8.40;98.30;;;;;;4104481;28;20464;-86
2021/05/08 06:49:35;;;;;;;12.17;5.90;;;8.40;98.30;;;;;;4104969;28;20506;-84
2021/05/08 06:51:38;;;;;;;12.83;5.43;;;8.50;98.30;;;;;;4105262;28;20472;-81
2021/05/08 06:53:40;;;;;;;9.77;5.77;;;8.50;98.30;;;;;;4107615;28;20482;-81
2021/05/08 06:55:42;;;;;;;16.30;5.40;;;8.50;98.30;;;;;;4102765;28;20500;-81
2021/05/08 06:57:53;;;;;;;16.23;6.00;;;8.70;98.30;;;;;;4101229;28;20503;-82
2021/05/08 06:59:58;;;;;;;12.40;5.97;;;8.70;98.30;;;;;;4105166;28;20540;-81
2021/05/08 07:02:00;;;;;;;11.37;5.37;;;8.70;98.30;;;;;;4106011;28;20479;-81
2021/05/08 07:04:04;;;;;;;10.10;5.10;;;8.80;98.30;;;;;;4102673;28;20523;-82
2021/05/08 07:06:06;;;;;;;10.40;5.90;;;8.70;98.30;;;;;;4100186;28;20514;-82
2021/05/08 07:08:08;;;;;;;8.67;5.03;;;8.80;98.30;;;;;;4109254;28;21063;-81
2021/05/08 07:10:11;;;;;;;9.80;4.67;;;9.00;98.30;;;;;;4106450;28;20553;-81
2021/05/08 07:12:15;;;;;;;10.53;5.03;;;9.00;98.30;;;;;;4107193;28;20486;-81
2021/05/08 07:14:17;;;;;;;8.77;5.10;;;9.10;98.30;;;;;;4110190;28;20492;-81
2021/05/08 07:16:32;;;;;;;12.83;5.37;;;9.20;98.30;;;;;;4105959;28;20855;-84
2021/05/08 07:18:59;;;;;;;9.77;5.13;;;9.30;98.30;;;;;;4101514;28;20850;-83
2021/05/08 07:21:04;;;;;;;11.50;4.77;;;9.40;98.30;;;;;;4104732;28;20567;-82
2021/05/08 07:23:11;;;;;;;9.17;4.60;;;9.40;98.30;;;;;;4103588;28;20554;-83
2021/05/08 07:25:14;;;;;;;10.43;5.47;;;9.60;98.30;;;;;;4103983;28;20609;-83
2021/05/08 07:27:18;;;;;;;7.27;4.80;;;9.70;98.30;;;;;;4108235;28;20568;-83
2021/05/08 07:29:21;;;;;;;12.83;6.00;;;9.80;98.30;;;;;;4108833;28;20901;-83
2021/05/08 07:31:23;;;;;;;8.20;5.50;;;9.80;98.30;;;;;;4110544;28;20487;-85
2021/05/08 07:33:26;;;;;;;10.10;4.90;;;9.80;98.30;;;;;;4103758;28;20488;-85
2021/05/08 07:35:33;;;;;;;9.80;5.20;;;9.90;98.30;;;;;;4107202;28;20486;-84
2021/05/08 07:37:46;;;;;;;9.63;4.30;;;9.80;98.30;;;;;;4101600;28;21022;-83
2021/05/08 07:39:48;;;;;;;7.00;4.87;;;9.60;98.30;;;;;;4102719;28;20583;-83
2021/05/08 07:41:50;;;;;;;10.60;4.67;;;9.60;98.30;;;;;;4104282;28;20504;-83
2021/05/08 07:43:52;;;;;;;8.70;4.47;;;9.50;98.30;;;;;;4110661;28;20991;-82
2021/05/08 07:45:54;;;;;;;9.30;4.30;;;9.40;98.30;;;;;;4097865;28;20488;-83
2021/05/08 07:47:59;;;;;;;9.83;4.60;;;9.40;98.30;;;;;;4106328;28;20857;-83
2021/05/08 07:50:01;;;;;;;10.97;4.77;;;9.50;98.30;;;;;;4109013;28;20491;-82
2021/05/08 07:52:03;;;;;;;10.93;5.00;;;9.60;98.30;;;;;;4095104;28;20501;-82
2021/05/08 07:54:06;;;;;;;9.43;4.43;;;9.80;98.30;;;;;;4097942;28;20520;-83
2021/05/08 07:56:08;;;;;;;6.50;4.27;;;9.80;98.30;;;;;;4107473;28;20497;-83
2021/05/08 07:58:10;;;;;;;7.73;4.07;;;9.90;98.30;;;;;;4106097;28;20992;-83
2021/05/08 08:00:14;;;;;;;7.93;5.47;;;9.80;98.30;;;;;;4103197;28;20491;-83
2021/05/08 08:02:23;;;;;;;11.17;5.10;;;9.80;98.30;;;;;;4110045;28;21020;-82
2021/05/08 08:04:46;;;;;;;11.67;4.20;;;9.90;98.30;;;;;;4089910;28;20495;-82
2021/05/08 08:06:48;;;;;;;10.37;5.73;;;9.90;98.30;;;;;;4108330;28;21089;-83
2021/05/08 08:08:50;;;;;;;7.17;5.20;;;9.80;98.30;;;;;;4101479;28;21009;-83
2021/05/08 08:10:52;;;;;;;6.00;4.47;;;10.00;98.30;;;;;;4104111;28;20508;-83
2021/05/08 08:12:55;;;;;;;9.03;5.03;;;10.20;98.30;;;;;;4113714;28;21089;-80
2021/05/08 08:14:57;;;;;;;5.70;4.47;;;10.40;98.30;;;;;;4110132;28;20485;-81
2021/05/08 08:16:58;;;;;;;10.30;4.40;;;10.50;97.70;;;;;;4110240;28;20496;-80
2021/05/08 08:19:01;;;;;;;8.20;4.30;;;10.60;97.00;;;;;;4109976;28;20495;-81
2021/05/08 08:21:04;;;;;;;9.40;4.50;;;10.80;97.70;;;;;;4113242;28;21011;-80
2021/05/08 08:23:07;;;;;;;6.93;4.00;;;10.90;96.50;;;;;;4114294;28;20484;-80
2021/05/08 08:25:10;;;;;;;6.07;4.03;;;10.70;95.40;;;;;;4108991;28;20496;-80
2021/05/08 08:27:16;;;;;;;15.13;4.37;;;10.80;96.30;;;;;;4106846;28;20867;-80
2021/05/08 08:29:17;;;;;;;9.17;3.90;;;10.90;94.90;;;;;;4108677;28;20499;-80
2021/05/08 08:31:19;;;;;;;9.57;4.10;;;10.80;94.80;;;;;;4108367;28;21132;-80
2021/05/08 08:33:21;;;;;;;10.57;4.53;;;10.80;95.40;;;;;;4109845;28;20496;-80
2021/05/08 08:35:24;;;;;;;5.37;4.40;;;10.80;95.50;;;;;;4109863;28;21545;-81
2021/05/08 08:37:26;;;;;;;8.40;4.00;;;11.10;96.30;;;;;;4111315;28;20484;-80
2021/05/08 08:39:29;;;;;;;6.20;4.17;;;11.40;94.10;;;;;;4108018;28;21014;-80
2021/05/08 08:41:32;;;;;;;7.60;3.93;;;11.20;93.90;;;;;;4108924;28;20907;-80
2021/05/08 08:43:35;;;;;;;7.47;3.93;;;11.20;93.90;;;;;;4108318;28;20500;-81
2021/05/08 08:45:37;;;;;;;6.63;3.80;;;11.20;94.50;;;;;;4108264;28;21026;-80
2021/05/08 08:47:39;;;;;;;5.50;3.97;;;11.30;94.30;;;;;;4112421;28;20507;-80
2021/05/08 08:49:41;;;;;;;9.53;3.93;;;11.30;92.90;;;;;;4110056;28;20497;-81
2021/05/08 08:51:44;;;;;;;8.67;4.57;;;11.10;93.50;;;;;;4110372;28;20496;-81
2021/05/08 08:53:50;;;;;;;8.90;4.60;;;11.20;93.70;;;;;;4110878;28;20526;-80
2021/05/08 08:55:54;;;;;;;6.33;4.00;;;11.40;93.60;;;;;;4111242;28;21118;-81
2021/05/08 08:57:57;;;;;;;6.80;3.90;;;11.60;93.60;;;;;;4108773;28;20491;-80
2021/05/08 09:00:04;;;;;;;6.83;3.80;;;11.80;91.10;;;;;;4112364;28;20553;-80
2021/05/08 09:02:06;;;;;;;6.23;3.73;;;11.90;91.10;;;;;;4111023;28;20491;-80
2021/05/08 09:04:09;;;;;;;7.10;4.33;;;12.00;91.10;;;;;;4111072;28;20551;-80
2021/05/08 09:06:12;;;;;;;9.17;3.97;;;12.00;90.10;;;;;;4106174;28;20865;-80
2021/05/08 09:08:17;;;;;;;5.40;3.10;;;11.90;89.00;;;;;;4112154;28;21370;-80
2021/05/08 09:10:24;;;;;;;5.23;3.60;;;11.80;87.80;;;;;;4109712;28;20501;-80
2021/05/08 09:12:30;;;;;;;10.50;4.73;;;12.10;89.60;;;;;;4108334;28;20513;-80
2021/05/08 09:14:33;;;;;;;7.00;3.90;;;12.30;88.70;;;;;;4109930;28;20491;-80
2021/05/08 09:16:36;;;;;;;6.67;4.00;;;12.50;88.90;;;;;;4104208;28;20599;-80
2021/05/08 09:18:40;;;;;;;4.27;3.70;;;12.70;88.50;;;;;;4108702;28;20806;-80
2021/05/08 09:20:47;;;;;;;5.67;3.17;;;12.90;86.70;;;;;;4111557;28;20492;-80
2021/05/08 09:22:50;;;;;;;7.40;4.07;;;12.70;85.50;;;;;;4111000;28;20504;-80
2021/05/08 09:24:56;;;;;;;6.63;3.70;;;12.60;86.20;;;;;;4111537;28;20489;-80
2021/05/08 09:27:00;;;;;;;6.13;3.50;;;12.60;86.70;;;;;;4111501;28;20511;-80
2021/05/08 09:29:03;;;;;;;9.47;5.00;;;12.60;87.00;;;;;;4107546;28;20496;-80
2021/05/08 09:31:07;;;;;;;9.33;3.90;;;12.50;88.00;;;;;;4109019;28;20867;-81
2021/05/08 09:33:10;;;;;;;6.77;3.90;;;12.70;87.30;;;;;;4101793;28;20503;-80
2021/05/08 09:35:19;;;;;;;4.57;3.17;;;12.90;86.50;;;;;;4108255;28;20493;-81
2021/05/08 09:37:20;;;;;;;5.23;3.60;;;13.00;86.30;;;;;;4103837;28;20496;-80
2021/05/08 09:39:30;;;;;;;5.80;3.97;;;12.80;86.20;;;;;;4106295;28;20496;-82
2021/05/08 09:41:46;;;;;;;7.53;3.93;;;12.60;86.40;;;;;;4108381;28;20575;-82
2021/05/08 09:43:48;;;;;;;5.43;3.80;;;12.50;87.40;;;;;;4108168;28;20870;-80
2021/05/08 09:45:52;;;;;;;6.80;3.60;;;12.50;87.80;;;;;;4114718;28;21002;-80
2021/05/08 09:47:55;;;;;;;6.63;4.00;;;12.70;88.10;;;;;;4107512;28;20508;-80
2021/05/08 09:49:58;;;;;;;5.50;4.20;;;12.90;86.70;;;;;;4107979;28;20953;-80
2021/05/08 09:52:01;;;;;;;6.43;4.00;;;13.00;85.20;;;;;;4107532;28;21014;-80
2021/05/08 09:54:13;;;;;;;6.77;4.47;;;12.90;85.50;;;;;;4107218;28;20503;-80
2021/05/08 09:56:35;;;;;;;6.53;3.87;;;13.10;84.90;;;;;;4109716;28;20859;-80
2021/05/08 09:58:37;;;;;;;7.67;3.93;;;12.90;85.10;;;;;;4108888;28;20516;-80
2021/05/08 10:00:39;;;;;;;7.50;3.93;;;12.80;85.60;;;;;;4111691;28;20499;-80
2021/05/08 10:02:41;;;;;;;4.30;3.80;;;12.90;85.80;;;;;;4110479;28;20532;-80
2021/05/08 10:04:47;;;;;;;6.40;4.13;;;13.10;86.40;;;;;;4110171;28;20583;-80
2021/05/08 10:07:05;;;;;;;7.87;3.70;;;13.60;85.20;;;;;;4112483;28;20534;-80
2021/05/08 10:09:07;;;;;;;7.20;3.83;;;13.80;83.30;;;;;;4110061;28;20496;-80
2021/05/08 10:11:09;;;;;;;8.63;4.23;;;13.70;83.90;;;;;;4110764;28;20559;-80
2021/05/08 10:13:12;;;;;;;8.23;4.30;;;13.80;83.30;;;;;;4112007;28;20485;-80
2021/05/08 10:15:15;;;;;;;9.57;4.10;;;13.90;84.60;;;;;;4107173;28;20488;-80
2021/05/08 10:17:19;;;;;;;5.50;4.07;;;13.90;83.80;;;;;;4109627;28;20990;-80
2021/05/08 10:19:21;;;;;;;8.73;3.90;;;13.70;83.90;;;;;;4108181;28;20507;-80
2021/05/08 10:21:23;;;;;;;5.63;4.57;;;13.80;84.50;;;;;;4110610;28;21028;-80
2021/05/08 10:23:29;;;;;;;6.43;4.13;;;14.10;85.00;;;;;;4109779;28;20508;-81
2021/05/08 10:25:32;;;;;;;6.90;4.97;;;14.50;82.90;;;;;;4109259;28;20911;-80
2021/05/08 10:27:34;;;;;;;6.93;5.07;;;14.40;82.00;;;;;;4110652;28;20497;-80
2021/05/08 10:29:38;;;;;;;5.30;4.43;;;14.10;82.60;;;;;;4112980;28;20491;-80
2021/05/08 10:31:42;;;;;;;9.97;6.80;;;13.90;83.00;;;;;;4110544;28;20488;-80
2021/05/08 10:33:45;;;;;;;5.97;4.80;;;13.50;84.20;;;;;;4108908;28;20491;-81
2021/05/08 10:35:48;;;;;;;6.93;4.70;;;13.20;84.70;;;;;;4108613;28;20537;-81
2021/05/08 10:38:15;;;;;;;9.20;4.80;;;13.40;83.90;;;;;;4107022;28;20502;-80
2021/05/08 10:40:19;;;;;;;7.63;4.87;;;13.60;83.70;;;;;;4105457;28;20926;-80
2021/05/08 10:42:38;;;;;;;5.10;4.60;;;13.70;82.10;;;;;;4106346;28;21418;-80